Hobart Ellerslie Road, Tasmania

9:52 AM AEDT on December 20, 2014 (GMT +1100)
South Hobart | Change Station
CLOSE
Current Station
Personal Weather Station
Location: South Hobart, TASMANIA
Elevation: 351 ft
Nearby Weather Stations

Elev 351 ft 42.90 °S, 147.31 °E | Updated 9 minutes ago

Scattered Clouds
Scattered Clouds
61.2 °F
Feels Like 61.2 °F
N
9.4
Wind Variable Wind from ESE

Today
High -- | Low -- °F
--% Chance of Precip.
Yesterday
High -- | Low -- °F
Precip. -- in
5:27 AM 8:48 PM
Waning Crescent, 6% visible
Pressure 29.86 in
Visibility 6.2 miles
Clouds Few 3000 ft
Scattered Clouds 4500 ft
Dew Point 51 °F
Humidity 69%
Rainfall 0.00 in
Snow Depth Not available.
UV 5 out of 12
Pollen Not available.
Air Quality Not available.
Flu Activity Not available.
METAR YMHB 192230Z 26008KT 9999 VCSH FEW030 SCT045 18/09 Q1011

More Conditions Fewer Conditions

Pressure 29.86 in
Visibility 6.2 miles
Clouds Few 3000 ft
Scattered Clouds 4500 ft
Dew Point 51 °F
Humidity 69%
Rainfall 0.00 in
Snow Depth Not available.
UV 5 out of 12
Pollen Not available.
Air Quality Not available.
Flu Activity Not available.
METAR YMHB 192230Z 26008KT 9999 VCSH FEW030 SCT045 18/09 Q1011

More Conditions Fewer Conditions

10-Day Weather Forecast

Almanac

Astronomy

Dec. 20, 2014 Rise Set
Actual Time
Civil Twilight
Nautical Twilight
Astronomical Twilight
Moon
Length of Visible Light
Length of Day
Tomorrow will be .
, % of the Moon is Illuminated

Today's Extremes

Country Highs Country Lows

Community

WunderPhotos

Upload Photos

1,779,071 photos uploaded!

WunderBlogs® & News

Nearby

Air Quality

  Air Quality AQ Index Pollutant
Not available.

Snow Depth

Station Depth Elevation

Earthquake Activity

City Distance Mag. Time & Date
Minimum magnitude displayed is 2.5.

Coastal Water Temperatures

Place Temperature

Nearby Weather Stations